Time;durP1;ratioP1;P1;durP2;ratioP2;P2;SDS_P1;SDS_P2;PMS_P1;PMS_P2;Temp;Humidity;BMP_temperature;BMP_pressure;BME280_temperature;BME280_humidity;BME280_pressure;Samples;Min_cycle;Max_cycle;Signal;HPM_P1;HPM_P2
2021/12/11 00:01:48;;;;;;;66.07;10.70;;;;;;;;;;5028190;28;20451;-95
2021/12/11 00:04:16;;;;;;;68.47;11.40;;;;;;;;;;5032075;28;20498;-94
2021/12/11 00:06:44;;;;;;;65.20;9.53;;;;;;;;;;5033544;28;20451;-94
2021/12/11 00:09:13;;;;;;;66.60;10.17;;;;;;;;;;5033782;28;20450;-96
2021/12/11 00:11:40;;;;;;;65.37;9.97;;;;;;;;;;5031989;28;20476;-94
2021/12/11 00:14:09;;;;;;;65.97;10.03;;;;;;;;;;5034439;28;20443;-95
2021/12/11 00:16:38;;;;;;;65.90;9.50;;;;;;;;;;5031605;28;20498;-96
2021/12/11 00:19:06;;;;;;;64.47;9.00;;;;;;;;;;5032747;28;20452;-96
2021/12/11 00:21:33;;;;;;;64.20;8.77;;;;;;;;;;5030303;28;21518;-96
2021/12/11 00:24:01;;;;;;;65.67;9.90;;;;;;;;;;5035245;28;20925;-96
2021/12/11 00:26:30;;;;;;;66.27;9.30;;;;;;;;;;5026108;28;20454;-96
2021/12/11 00:28:57;;;;;;;65.80;9.80;;;;;;;;;;5028777;28;20442;-96
2021/12/11 00:31:24;;;;;;;65.40;9.67;;;;;;;;;;5030160;28;20480;-96
2021/12/11 00:33:53;;;;;;;65.23;10.00;;;;;;;;;;5028929;28;20478;-96
2021/12/11 00:36:21;;;;;;;67.60;11.03;;;;;;;;;;5029171;28;20938;-96
2021/12/11 00:38:50;;;;;;;69.30;11.13;;;;;;;;;;5030202;28;20471;-96
2021/12/11 00:41:17;;;;;;;70.80;12.30;;;;;;;;;;5029888;28;20455;-96
2021/12/11 00:43:44;;;;;;;70.27;11.07;;;;;;;;;;5035194;28;20505;-96
2021/12/11 00:46:12;;;;;;;66.97;10.10;;;;;;;;;;5033115;28;20444;-96
2021/12/11 00:48:39;;;;;;;65.83;9.30;;;;;;;;;;5036975;28;20829;-96
2021/12/11 00:51:09;;;;;;;65.20;9.10;;;;;;;;;;5043440;28;20443;-96
2021/12/11 00:53:43;;;;;;;65.13;9.73;;;;;;;;;;5038669;28;20855;-96
2021/12/11 00:56:11;;;;;;;65.07;9.37;;;;;;;;;;5096259;22;21267;-96
2021/12/11 01:01:09;;;;;;;64.37;9.00;;;;;;;;;;5045457;22;20554;-96
2021/12/11 01:03:39;;;;;;;81.53;10.83;;;;;;;;;;5031710;28;20502;-96
2021/12/11 01:06:11;;;;;;;64.20;9.10;;;;;;;;;;5034513;28;20482;-96
2021/12/11 01:08:40;;;;;;;64.87;9.07;;;;;;;;;;5028962;28;20470;-96
2021/12/11 01:11:09;;;;;;;65.67;9.40;;;;;;;;;;5035680;28;20446;-96
2021/12/11 01:13:47;;;;;;;64.37;9.40;;;;;;;;;;5041077;28;20455;-96
2021/12/11 01:16:15;;;;;;;66.60;9.67;;;;;;;;;;5037778;28;20481;-96
2021/12/11 01:18:44;;;;;;;65.57;10.07;;;;;;;;;;5040047;28;20454;-96
2021/12/11 01:29:47;;;;;;;67.60;11.07;;;;;;;;;;5036583;28;20939;-96
2021/12/11 01:32:15;;;;;;;69.00;10.73;;;;;;;;;;5020574;28;20458;-96
2021/12/11 01:34:42;;;;;;;68.67;10.93;;;;;;;;;;5039761;28;20416;-96
2021/12/11 01:37:09;;;;;;;70.20;12.60;;;;;;;;;;5037743;28;20447;-96
2021/12/11 01:39:40;;;;;;;71.77;14.10;;;;;;;;;;5041336;28;20502;-96
2021/12/11 01:42:08;;;;;;;71.47;14.07;;;;;;;;;;5038549;28;20454;-96
2021/12/11 01:44:36;;;;;;;74.00;13.80;;;;;;;;;;5034813;28;20481;-96
2021/12/11 01:47:04;;;;;;;68.37;10.87;;;;;;;;;;5033732;28;20450;-96
2021/12/11 01:49:31;;;;;;;69.10;10.83;;;;;;;;;;5038080;28;20462;-96
2021/12/11 01:51:59;;;;;;;66.63;10.07;;;;;;;;;;5032392;28;20444;-96
2021/12/11 01:54:28;;;;;;;67.07;9.80;;;;;;;;;;5030651;28;20463;-95
2021/12/11 01:57:00;;;;;;;64.13;9.10;;;;;;;;;;5029884;28;20447;-94
2021/12/11 01:59:29;;;;;;;65.03;9.07;;;;;;;;;;5031257;28;20982;-95
2021/12/11 02:02:00;;;;;;;69.70;8.63;;;;;;;;;;5030254;28;20481;-94
2021/12/11 02:04:27;;;;;;;63.07;8.63;;;;;;;;;;5031665;28;20533;-92
2021/12/11 02:06:54;;;;;;;63.40;8.77;;;;;;;;;;5033369;28;20469;-96
2021/12/11 02:09:22;;;;;;;63.90;9.03;;;;;;;;;;5043545;28;20469;-96
2021/12/11 02:11:50;;;;;;;65.87;8.80;;;;;;;;;;5038287;28;20443;-93
2021/12/11 02:14:24;;;;;;;64.10;8.63;;;;;;;;;;5032156;28;20477;-93
2021/12/11 02:16:52;;;;;;;63.27;8.67;;;;;;;;;;5029945;28;20447;-94
2021/12/11 02:19:20;;;;;;;63.80;8.37;;;;;;;;;;5033399;28;20446;-91
2021/12/11 02:21:57;;;;;;;63.30;8.33;;;;;;;;;;5032822;28;20440;-93
2021/12/11 02:24:25;;;;;;;64.10;8.77;;;;;;;;;;5034530;28;20451;-93
2021/12/11 02:26:55;;;;;;;62.70;8.30;;;;;;;;;;5033226;28;20470;-95
2021/12/11 02:29:24;;;;;;;63.27;8.97;;;;;;;;;;5033609;28;20486;-95
2021/12/11 02:31:52;;;;;;;64.07;8.90;;;;;;;;;;5031468;28;20536;-94
2021/12/11 02:34:22;;;;;;;63.00;8.57;;;;;;;;;;5033780;28;20447;-96
2021/12/11 02:36:53;;;;;;;62.50;8.07;;;;;;;;;;5033735;28;20419;-96
2021/12/11 02:39:25;;;;;;;62.67;8.50;;;;;;;;;;5032935;28;20459;-93
2021/12/11 02:41:53;;;;;;;63.17;8.70;;;;;;;;;;5032561;28;20459;-95
2021/12/11 02:44:24;;;;;;;63.10;8.77;;;;;;;;;;5028948;28;20502;-93
2021/12/11 02:46:54;;;;;;;62.17;8.13;;;;;;;;;;5032087;28;20444;-96
2021/12/11 02:49:22;;;;;;;64.77;8.60;;;;;;;;;;5029718;28;20542;-96
2021/12/11 02:51:51;;;;;;;63.30;8.63;;;;;;;;;;5029727;28;20457;-95
2021/12/11 02:54:21;;;;;;;64.33;9.33;;;;;;;;;;5028310;28;20967;-95
2021/12/11 02:56:53;;;;;;;63.57;8.60;;;;;;;;;;5028306;28;20447;-92
2021/12/11 02:59:23;;;;;;;63.90;9.40;;;;;;;;;;5030054;28;20887;-95
2021/12/11 03:01:51;;;;;;;63.20;8.73;;;;;;;;;;5030510;28;20447;-96
2021/12/11 03:04:23;;;;;;;63.87;9.00;;;;;;;;;;5033243;28;20455;-96
2021/12/11 03:06:51;;;;;;;64.57;9.23;;;;;;;;;;5036173;28;20436;-96
2021/12/11 03:09:20;;;;;;;64.00;10.00;;;;;;;;;;5032767;28;20455;-93
2021/12/11 03:11:47;;;;;;;68.50;9.90;;;;;;;;;;5029604;28;20440;-94
2021/12/11 03:14:18;;;;;;;64.97;9.80;;;;;;;;;;5030845;28;20846;-94
2021/12/11 03:16:44;;;;;;;64.70;9.97;;;;;;;;;;5033472;28;20442;-93
2021/12/11 03:19:12;;;;;;;64.17;9.37;;;;;;;;;;5030405;28;20455;-96
2021/12/11 03:21:39;;;;;;;66.67;9.90;;;;;;;;;;5029905;28;20444;-96
2021/12/11 03:24:06;;;;;;;67.03;10.63;;;;;;;;;;5033251;28;20466;-95
2021/12/11 03:26:34;;;;;;;66.80;11.60;;;;;;;;;;5031267;28;20486;-96
2021/12/11 03:29:00;;;;;;;65.40;10.40;;;;;;;;;;5030598;28;20450;-94
2021/12/11 03:31:28;;;;;;;64.90;10.03;;;;;;;;;;5038411;28;20477;-95
2021/12/11 03:33:57;;;;;;;64.27;10.00;;;;;;;;;;5032041;28;20447;-96
2021/12/11 03:36:25;;;;;;;63.97;9.70;;;;;;;;;;5032330;28;21010;-96
2021/12/11 03:38:53;;;;;;;63.77;9.00;;;;;;;;;;5031063;28;20466;-96
2021/12/11 03:41:35;;;;;;;63.70;9.60;;;;;;;;;;5031417;28;20483;-96
2021/12/11 03:44:03;;;;;;;63.80;9.70;;;;;;;;;;5035192;28;20423;-94
2021/12/11 03:46:31;;;;;;;63.67;9.20;;;;;;;;;;5036116;28;20983;-96
2021/12/11 03:49:11;;;;;;;62.90;8.30;;;;;;;;;;5035799;28;20440;-96
2021/12/11 03:51:40;;;;;;;63.30;9.67;;;;;;;;;;5033215;28;20548;-95
2021/12/11 03:54:09;;;;;;;63.10;8.70;;;;;;;;;;5036389;28;20498;-95
2021/12/11 03:56:36;;;;;;;63.40;9.43;;;;;;;;;;5030541;28;20466;-93
2021/12/11 03:59:09;;;;;;;63.40;9.07;;;;;;;;;;5033224;28;20471;-96
2021/12/11 04:01:40;;;;;;;63.40;9.27;;;;;;;;;;5027370;28;20471;-95
2021/12/11 04:04:08;;;;;;;63.57;8.97;;;;;;;;;;5028670;28;20454;-94
2021/12/11 04:06:38;;;;;;;63.43;9.20;;;;;;;;;;5030712;28;20496;-96
2021/12/11 04:09:05;;;;;;;65.50;8.97;;;;;;;;;;5029303;28;20443;-96
2021/12/11 04:11:34;;;;;;;63.63;8.53;;;;;;;;;;5034217;28;20560;-95
2021/12/11 04:14:02;;;;;;;61.87;7.60;;;;;;;;;;5030372;28;20431;-96
2021/12/11 04:16:28;;;;;;;62.87;8.67;;;;;;;;;;5032476;28;20504;-96
2021/12/11 04:18:56;;;;;;;62.67;8.60;;;;;;;;;;5028490;28;20438;-95
2021/12/11 04:21:23;;;;;;;63.00;9.10;;;;;;;;;;5031130;28;20473;-96
2021/12/11 04:23:50;;;;;;;62.73;8.90;;;;;;;;;;5032087;28;20448;-94
2021/12/11 04:26:17;;;;;;;62.83;8.77;;;;;;;;;;5033276;28;20518;-96
2021/12/11 04:28:46;;;;;;;63.43;8.73;;;;;;;;;;5030952;28;20453;-93
2021/12/11 04:31:14;;;;;;;62.90;8.30;;;;;;;;;;5030795;28;20451;-94
2021/12/11 04:33:47;;;;;;;66.90;9.00;;;;;;;;;;5032822;28;20456;-96
2021/12/11 04:36:17;;;;;;;63.80;9.20;;;;;;;;;;5033607;28;20440;-92
2021/12/11 04:38:44;;;;;;;63.27;9.50;;;;;;;;;;5028646;28;20511;-95
2021/12/11 04:41:14;;;;;;;63.60;9.57;;;;;;;;;;5030746;28;20454;-94
2021/12/11 04:46:24;;;;;;;64.47;9.67;;;;;;;;;;5030975;28;20471;-94
2021/12/11 04:48:58;;;;;;;62.87;9.00;;;;;;;;;;5031852;28;20470;-94
2021/12/11 04:51:35;;;;;;;64.10;8.87;;;;;;;;;;5031931;28;20448;-95
2021/12/11 04:54:17;;;;;;;63.60;9.60;;;;;;;;;;5030021;28;20602;-93
2021/12/11 04:57:12;;;;;;;63.30;9.30;;;;;;;;;;5031637;28;21410;-94
2021/12/11 04:59:52;;;;;;;62.70;9.00;;;;;;;;;;5029603;28;20488;-94
2021/12/11 05:02:52;;;;;;;63.43;8.30;;;;;;;;;;5029806;28;20452;-95
2021/12/11 05:05:26;;;;;;;62.83;9.30;;;;;;;;;;5029497;28;20447;-93
2021/12/11 05:08:13;;;;;;;65.57;9.40;;;;;;;;;;5031323;28;20438;-94
2021/12/11 05:10:51;;;;;;;63.87;9.20;;;;;;;;;;5033754;28;20513;-95
2021/12/11 05:13:18;;;;;;;63.37;8.70;;;;;;;;;;5034858;28;20419;-94
2021/12/11 05:15:46;;;;;;;62.90;8.23;;;;;;;;;;5033503;28;20519;-94
2021/12/11 05:18:14;;;;;;;63.60;8.47;;;;;;;;;;5033217;28;20446;-95
2021/12/11 05:20:42;;;;;;;63.17;9.03;;;;;;;;;;5034589;28;20465;-93
2021/12/11 05:23:11;;;;;;;63.30;9.00;;;;;;;;;;5035381;28;20485;-96
2021/12/11 05:25:37;;;;;;;63.07;8.50;;;;;;;;;;5033391;28;20483;-92
2021/12/11 05:28:06;;;;;;;62.57;8.50;;;;;;;;;;5036503;28;20479;-94
2021/12/11 05:30:34;;;;;;;63.20;9.10;;;;;;;;;;5036881;28;20494;-95
2021/12/11 05:33:08;;;;;;;62.80;8.07;;;;;;;;;;5036544;28;20487;-96
2021/12/11 05:35:41;;;;;;;63.17;8.80;;;;;;;;;;5039821;28;20443;-94
2021/12/11 05:38:09;;;;;;;63.07;8.87;;;;;;;;;;5035951;28;20513;-92
2021/12/11 05:40:38;;;;;;;62.80;9.00;;;;;;;;;;5034294;28;20471;-94
2021/12/11 05:43:05;;;;;;;62.23;8.30;;;;;;;;;;5036640;28;20512;-96
2021/12/11 05:45:32;;;;;;;62.50;9.00;;;;;;;;;;5035383;28;21224;-93
2021/12/11 05:47:59;;;;;;;63.33;9.30;;;;;;;;;;5041348;22;20586;-94
2021/12/11 05:50:28;;;;;;;62.33;8.37;;;;;;;;;;5044270;28;20446;-95
2021/12/11 05:52:54;;;;;;;62.47;8.80;;;;;;;;;;5043147;28;20438;-91
2021/12/11 05:55:27;;;;;;;64.00;8.60;;;;;;;;;;5048136;28;20509;-95
2021/12/11 05:57:57;;;;;;;62.67;8.53;;;;;;;;;;5044826;28;20792;-94
2021/12/11 06:00:25;;;;;;;62.03;7.97;;;;;;;;;;5051058;28;20440;-94
2021/12/11 06:02:52;;;;;;;62.30;8.00;;;;;;;;;;5041936;28;20455;-92
2021/12/11 06:05:19;;;;;;;62.27;8.57;;;;;;;;;;5045378;28;20466;-93
2021/12/11 06:07:45;;;;;;;62.10;7.53;;;;;;;;;;5043793;28;20544;-93
2021/12/11 06:10:16;;;;;;;62.00;8.27;;;;;;;;;;5043586;28;20450;-96
2021/12/11 06:12:44;;;;;;;62.77;8.90;;;;;;;;;;5045882;28;20435;-96
2021/12/11 06:15:12;;;;;;;63.97;8.97;;;;;;;;;;5041655;28;20451;-96
2021/12/11 06:17:41;;;;;;;64.30;9.07;;;;;;;;;;5043216;28;20474;-96
2021/12/11 06:20:11;;;;;;;62.50;9.00;;;;;;;;;;5046931;28;20550;-95
2021/12/11 06:22:39;;;;;;;63.87;9.10;;;;;;;;;;5044429;28;20443;-94
2021/12/11 06:25:09;;;;;;;61.97;8.90;;;;;;;;;;5041943;28;20451;-95
2021/12/11 06:27:35;;;;;;;63.33;9.30;;;;;;;;;;5044423;28;20486;-94
2021/12/11 06:30:05;;;;;;;63.43;9.87;;;;;;;;;;5040517;28;20439;-93
2021/12/11 06:32:33;;;;;;;63.33;8.77;;;;;;;;;;5040604;28;20454;-93
2021/12/11 06:35:01;;;;;;;62.43;8.73;;;;;;;;;;5042887;28;20443;-95
2021/12/11 06:37:27;;;;;;;62.60;8.77;;;;;;;;;;5046267;28;20475;-94
2021/12/11 06:39:56;;;;;;;63.27;9.20;;;;;;;;;;5042828;28;20448;-94
2021/12/11 06:42:23;;;;;;;62.93;8.70;;;;;;;;;;5042427;28;20468;-95
2021/12/11 06:44:50;;;;;;;62.80;9.37;;;;;;;;;;5041141;28;20474;-96
2021/12/11 06:47:16;;;;;;;62.23;9.00;;;;;;;;;;5038852;28;20525;-95
2021/12/11 06:49:45;;;;;;;62.80;8.93;;;;;;;;;;5029729;28;20505;-94
2021/12/11 06:52:14;;;;;;;62.63;9.03;;;;;;;;;;5030744;28;20466;-96
2021/12/11 06:54:43;;;;;;;62.77;9.07;;;;;;;;;;5031775;28;20478;-96
2021/12/11 06:57:10;;;;;;;62.80;9.60;;;;;;;;;;5032255;28;20450;-93
2021/12/11 06:59:37;;;;;;;62.70;9.20;;;;;;;;;;5045677;23;20537;-91
2021/12/11 07:02:06;;;;;;;62.80;9.43;;;;;;;;;;5041621;28;20877;-96
2021/12/11 07:04:33;;;;;;;63.10;9.37;;;;;;;;;;5039446;28;20456;-95
2021/12/11 07:07:01;;;;;;;63.40;9.30;;;;;;;;;;5039687;28;20517;-96
2021/12/11 07:09:28;;;;;;;63.60;9.93;;;;;;;;;;5041455;28;20483;-92
2021/12/11 07:11:56;;;;;;;63.40;9.60;;;;;;;;;;5041036;28;20470;-94
2021/12/11 07:14:24;;;;;;;65.00;9.57;;;;;;;;;;5040390;28;20474;-93
2021/12/11 07:16:50;;;;;;;64.90;10.80;;;;;;;;;;5040376;28;20427;-94
2021/12/11 07:19:17;;;;;;;64.67;9.80;;;;;;;;;;5041207;28;20452;-94
2021/12/11 07:21:46;;;;;;;63.10;9.47;;;;;;;;;;5039038;28;20471;-92
2021/12/11 07:24:15;;;;;;;65.87;10.37;;;;;;;;;;5039733;28;20452;-94
2021/12/11 07:26:41;;;;;;;63.10;9.63;;;;;;;;;;5040804;28;20471;-94
2021/12/11 07:29:10;;;;;;;62.93;8.83;;;;;;;;;;5038094;28;20468;-91
2021/12/11 07:31:45;;;;;;;62.87;9.90;;;;;;;;;;5038914;28;20467;-95
2021/12/11 07:34:12;;;;;;;64.40;9.47;;;;;;;;;;5043001;28;20509;-95
2021/12/11 07:36:39;;;;;;;63.63;9.80;;;;;;;;;;5041635;28;20459;-95
2021/12/11 07:39:07;;;;;;;62.80;9.27;;;;;;;;;;5043649;28;20443;-93
2021/12/11 07:41:37;;;;;;;64.07;10.03;;;;;;;;;;5045353;28;20471;-91
2021/12/11 07:46:46;;;;;;;63.20;10.23;;;;;;;;;;5041794;28;20483;-93
2021/12/11 07:49:12;;;;;;;66.20;9.77;;;;;;;;;;5041258;28;20439;-92
2021/12/11 07:51:39;;;;;;;62.50;9.70;;;;;;;;;;5043024;28;20439;-94
2021/12/11 07:54:07;;;;;;;63.73;9.60;;;;;;;;;;5045115;28;20439;-91
2021/12/11 07:56:36;;;;;;;62.47;9.80;;;;;;;;;;5041801;28;20449;-95
2021/12/11 07:59:04;;;;;;;62.90;9.80;;;;;;;;;;5043809;28;20506;-93
2021/12/11 08:01:38;;;;;;;63.90;10.00;;;;;;;;;;5042402;28;20436;-96
2021/12/11 08:04:06;;;;;;;62.43;9.67;;;;;;;;;;5040790;28;21257;-96
2021/12/11 08:06:33;;;;;;;64.63;10.00;;;;;;;;;;5042192;28;20485;-95
2021/12/11 08:09:04;;;;;;;63.43;9.60;;;;;;;;;;5041697;28;20449;-96
2021/12/11 08:11:31;;;;;;;64.03;9.07;;;;;;;;;;5041342;28;20449;-96
2021/12/11 08:13:59;;;;;;;63.40;9.23;;;;;;;;;;5041152;28;20455;-95
2021/12/11 08:16:32;;;;;;;62.63;9.80;;;;;;;;;;5039836;28;20443;-94
2021/12/11 08:19:01;;;;;;;63.47;9.97;;;;;;;;;;5039107;28;20461;-96
2021/12/11 08:21:28;;;;;;;63.07;9.50;;;;;;;;;;5039420;28;20449;-92
2021/12/11 08:23:56;;;;;;;62.90;9.50;;;;;;;;;;5042416;28;20440;-94
2021/12/11 08:26:24;;;;;;;64.80;9.53;;;;;;;;;;5042548;28;20449;-94
2021/12/11 08:31:35;;;;;;;62.70;9.47;;;;;;;;;;5058843;22;20551;-93
2021/12/11 08:34:02;;;;;;;62.90;9.90;;;;;;;;;;5037864;28;20446;-93
2021/12/11 08:36:28;;;;;;;62.53;9.37;;;;;;;;;;5042400;28;20444;-94
2021/12/11 08:38:55;;;;;;;62.80;9.43;;;;;;;;;;5039444;28;20440;-96
2021/12/11 08:41:27;;;;;;;62.90;9.80;;;;;;;;;;5039482;28;20478;-96
2021/12/11 08:44:00;;;;;;;69.43;9.60;;;;;;;;;;5039109;28;20499;-93
2021/12/11 08:46:28;;;;;;;62.73;9.63;;;;;;;;;;5039675;28;20451;-91
2021/12/11 08:48:58;;;;;;;63.50;9.27;;;;;;;;;;5040833;28;20445;-94
2021/12/11 08:51:26;;;;;;;63.30;10.33;;;;;;;;;;5040990;28;20439;-94
2021/12/11 08:53:56;;;;;;;62.67;9.93;;;;;;;;;;5043814;28;20443;-96
2021/12/11 08:56:23;;;;;;;63.07;10.33;;;;;;;;;;5042570;28;20449;-92
2021/12/11 08:58:50;;;;;;;63.37;9.70;;;;;;;;;;5039729;28;20518;-92
2021/12/11 09:01:19;;;;;;;62.70;9.77;;;;;;;;;;5041448;28;20452;-94
2021/12/11 09:03:48;;;;;;;63.30;10.03;;;;;;;;;;5042269;28;20593;-91
2021/12/11 09:06:18;;;;;;;64.37;10.80;;;;;;;;;;5041551;28;20441;-92
2021/12/11 09:08:48;;;;;;;63.07;9.30;;;;;;;;;;5041156;28;20471;-94
2021/12/11 09:11:18;;;;;;;63.43;10.03;;;;;;;;;;5037585;28;20465;-93
2021/12/11 09:13:47;;;;;;;63.90;10.20;;;;;;;;;;5038747;28;20499;-94
2021/12/11 09:16:16;;;;;;;63.80;9.93;;;;;;;;;;5041761;28;20451;-93
2021/12/11 09:18:54;;;;;;;62.97;9.40;;;;;;;;;;5042328;28;20465;-96
2021/12/11 09:21:38;;;;;;;65.53;10.10;;;;;;;;;;5046051;28;20436;-94
2021/12/11 09:24:06;;;;;;;62.90;9.67;;;;;;;;;;5042431;28;20441;-96
2021/12/11 09:26:34;;;;;;;63.63;9.67;;;;;;;;;;5044716;28;20449;-95
2021/12/11 09:29:04;;;;;;;62.43;9.27;;;;;;;;;;5042938;28;20433;-96
2021/12/11 09:31:35;;;;;;;62.77;9.07;;;;;;;;;;5049176;28;20471;-96
2021/12/11 09:34:04;;;;;;;64.60;10.40;;;;;;;;;;5053511;28;20467;-94
2021/12/11 09:36:34;;;;;;;63.00;9.97;;;;;;;;;;5050145;28;20439;-96
2021/12/11 09:39:07;;;;;;;63.00;9.43;;;;;;;;;;5051399;28;20475;-93
2021/12/11 09:41:33;;;;;;;63.40;9.37;;;;;;;;;;5051817;28;20448;-93
2021/12/11 09:44:04;;;;;;;62.83;9.23;;;;;;;;;;5052466;28;20452;-94
2021/12/11 09:46:33;;;;;;;62.63;8.90;;;;;;;;;;5051348;28;20456;-93
2021/12/11 09:49:01;;;;;;;64.20;9.90;;;;;;;;;;5058419;22;20531;-94
2021/12/11 09:51:31;;;;;;;62.57;9.47;;;;;;;;;;5019572;28;20483;-91
2021/12/11 09:54:00;;;;;;;63.33;9.03;;;;;;;;;;5018274;28;20432;-93
2021/12/11 09:56:30;;;;;;;62.73;9.33;;;;;;;;;;5020872;28;20461;-96
2021/12/11 09:58:59;;;;;;;63.57;9.73;;;;;;;;;;5023943;28;20441;-96
2021/12/11 10:01:32;;;;;;;63.10;9.30;;;;;;;;;;5024612;28;20445;-96
2021/12/11 10:04:02;;;;;;;63.77;9.13;;;;;;;;;;5020371;28;20449;-96
2021/12/11 10:06:43;;;;;;;63.03;9.07;;;;;;;;;;5022621;28;20449;-95
2021/12/11 10:11:58;;;;;;;64.07;8.57;;;;;;;;;;5042745;28;20451;-95
2021/12/11 10:14:28;;;;;;;63.27;8.43;;;;;;;;;;5049493;28;20446;-96
2021/12/11 10:16:59;;;;;;;62.20;8.57;;;;;;;;;;5047044;28;20508;-96
2021/12/11 10:19:29;;;;;;;62.50;8.70;;;;;;;;;;5045209;28;20445;-94
2021/12/11 10:21:58;;;;;;;62.60;8.10;;;;;;;;;;5043312;28;20431;-95
2021/12/11 10:24:26;;;;;;;62.23;8.60;;;;;;;;;;5042922;28;20498;-94
2021/12/11 10:26:54;;;;;;;63.07;9.03;;;;;;;;;;5041316;28;20530;-95
2021/12/11 10:29:22;;;;;;;62.30;8.87;;;;;;;;;;5047140;28;20500;-95
2021/12/11 10:31:51;;;;;;;62.20;8.33;;;;;;;;;;5042322;28;20467;-92
2021/12/11 10:34:32;;;;;;;62.10;8.30;;;;;;;;;;5043926;28;20859;-96
2021/12/11 10:37:04;;;;;;;63.60;8.73;;;;;;;;;;5029281;28;20469;-96
2021/12/11 10:39:31;;;;;;;62.13;8.60;;;;;;;;;;5064923;23;20498;-96
2021/12/11 10:41:59;;;;;;;62.70;8.53;;;;;;;;;;5063731;28;20463;-96
2021/12/11 10:44:27;;;;;;;62.00;8.43;;;;;;;;;;5062671;28;21379;-96
2021/12/11 10:46:57;;;;;;;62.50;9.00;;;;;;;;;;5063295;28;20424;-96
2021/12/11 10:49:24;;;;;;;61.90;7.73;;;;;;;;;;5060822;28;20446;-95
2021/12/11 10:51:52;;;;;;;61.87;8.50;;;;;;;;;;5063777;28;20971;-95
2021/12/11 10:54:21;;;;;;;63.30;8.53;;;;;;;;;;5062680;28;20486;-96
2021/12/11 10:56:48;;;;;;;62.60;8.40;;;;;;;;;;5066062;28;20445;-96
2021/12/11 10:59:17;;;;;;;62.00;8.53;;;;;;;;;;5063130;28;20452;-96
2021/12/11 11:01:45;;;;;;;62.17;8.33;;;;;;;;;;5058510;28;20440;-95
2021/12/11 11:04:14;;;;;;;62.00;8.40;;;;;;;;;;5062844;28;20454;-96
2021/12/11 11:06:42;;;;;;;66.47;11.83;;;;;;;;;;5063805;28;20444;-96
2021/12/11 11:09:10;;;;;;;66.20;11.10;;;;;;;;;;5042219;28;20494;-96
2021/12/11 11:11:38;;;;;;;64.53;10.60;;;;;;;;;;5058063;28;20467;-95
2021/12/11 11:14:05;;;;;;;62.47;9.10;;;;;;;;;;5060061;28;20470;-94
2021/12/11 11:16:32;;;;;;;62.30;8.77;;;;;;;;;;5060511;28;20476;-95
2021/12/11 11:18:59;;;;;;;62.37;9.13;;;;;;;;;;5063104;28;20451;-93
2021/12/11 11:21:26;;;;;;;62.00;8.50;;;;;;;;;;5058098;28;20452;-95
2021/12/11 11:23:54;;;;;;;62.33;8.40;;;;;;;;;;5058807;28;20506;-93
2021/12/11 11:26:21;;;;;;;62.17;8.77;;;;;;;;;;5060440;28;20443;-94
2021/12/11 11:28:49;;;;;;;62.00;8.27;;;;;;;;;;5059359;28;21659;-94
2021/12/11 11:31:18;;;;;;;61.67;8.03;;;;;;;;;;5060378;28;20443;-94
2021/12/11 11:33:46;;;;;;;62.10;8.70;;;;;;;;;;5059908;28;20449;-95
2021/12/11 11:36:14;;;;;;;67.10;11.03;;;;;;;;;;5057892;28;20441;-94
2021/12/11 11:38:42;;;;;;;66.70;12.13;;;;;;;;;;5060981;28;20502;-95
2021/12/11 11:41:11;;;;;;;67.23;13.07;;;;;;;;;;5059192;28;20816;-95
2021/12/11 11:43:38;;;;;;;70.50;14.30;;;;;;;;;;5060148;28;20479;-95
2021/12/11 11:46:08;;;;;;;73.17;15.77;;;;;;;;;;5058511;28;20453;-94
2021/12/11 11:48:35;;;;;;;76.07;16.60;;;;;;;;;;5059080;28;20485;-95
2021/12/11 11:51:04;;;;;;;78.03;20.73;;;;;;;;;;5058542;28;20443;-96
2021/12/11 11:53:31;;;;;;;77.67;19.63;;;;;;;;;;5058270;28;20460;-96
2021/12/11 11:56:01;;;;;;;77.70;20.93;;;;;;;;;;5059412;28;20448;-96
2021/12/11 11:58:28;;;;;;;82.23;21.80;;;;;;;;;;5063318;28;20456;-96
2021/12/11 12:00:57;;;;;;;89.23;24.67;;;;;;;;;;5058865;28;20446;-94
2021/12/11 12:03:28;;;;;;;100.30;31.50;;;;;;;;;;5057992;28;20449;-95
2021/12/11 12:05:59;;;;;;;93.27;29.23;;;;;;;;;;5061080;28;20503;-95
2021/12/11 12:08:25;;;;;;;83.47;22.67;;;;;;;;;;5058565;28;20573;-96
2021/12/11 12:10:53;;;;;;;80.50;21.40;;;;;;;;;;5065265;28;20444;-96
2021/12/11 12:13:24;;;;;;;87.30;22.07;;;;;;;;;;5071698;28;20436;-96
2021/12/11 12:15:52;;;;;;;101.03;33.40;;;;;;;;;;5072428;28;20455;-96
2021/12/11 12:18:35;;;;;;;90.80;25.00;;;;;;;;;;5071995;28;20436;-96
2021/12/11 12:26:27;;;;;;;92.33;27.70;;;;;;;;;;5146206;22;20507;-96
2021/12/11 12:28:55;;;;;;;100.37;30.43;;;;;;;;;;5050083;28;20480;-96
2021/12/11 12:31:24;;;;;;;102.20;35.80;;;;;;;;;;5046478;28;20449;-96
2021/12/11 12:33:51;;;;;;;110.50;34.10;;;;;;;;;;5723504;22;20454;-96
2021/12/11 12:39:24;;;;;;;85.90;25.87;;;;;;;;;;5391179;22;20470;-96
2021/12/11 12:44:53;;;;;;;86.67;25.03;;;;;;;;;;5688457;22;20532;-96
2021/12/11 12:52:31;;;;;;;81.57;21.50;;;;;;;;;;5284929;22;20522;-94
2021/12/11 12:54:58;;;;;;;86.17;23.97;;;;;;;;;;5062515;28;20449;-95
2021/12/11 13:11:05;;;;;;;102.17;30.43;;;;;;;;;;5155024;22;20543;-96
2021/12/11 13:18:49;;;;;;;86.50;23.80;;;;;;;;;;5053122;22;20495;-96
2021/12/11 13:26:37;;;;;;;85.87;25.63;;;;;;;;;;5213907;22;20492;-96
2021/12/11 13:29:06;;;;;;;91.53;26.70;;;;;;;;;;5068038;28;20485;-96
2021/12/11 13:34:24;;;;;;;93.33;29.27;;;;;;;;;;5449817;22;20529;-96
2021/12/11 13:39:37;;;;;;;95.33;30.97;;;;;;;;;;5068297;23;20511;-96
2021/12/11 13:50:05;;;;;;;90.17;25.60;;;;;;;;;;5021867;28;20499;-94
2021/12/11 13:52:32;;;;;;;86.50;24.67;;;;;;;;;;5023066;28;20439;-96
2021/12/11 13:55:00;;;;;;;86.13;23.90;;;;;;;;;;5009179;28;20443;-93
2021/12/11 13:57:27;;;;;;;85.10;23.23;;;;;;;;;;5021665;28;20456;-95
2021/12/11 13:59:55;;;;;;;86.10;23.80;;;;;;;;;;5022503;28;20456;-94
2021/12/11 14:02:22;;;;;;;83.47;22.67;;;;;;;;;;5020968;28;20479;-96
2021/12/11 14:04:49;;;;;;;86.40;23.10;;;;;;;;;;5021146;28;20448;-96
2021/12/11 14:07:20;;;;;;;82.27;22.00;;;;;;;;;;5021325;28;20444;-96
2021/12/11 14:09:49;;;;;;;84.53;22.20;;;;;;;;;;5020215;28;20899;-96
2021/12/11 14:12:17;;;;;;;81.20;22.20;;;;;;;;;;5022518;28;20471;-96
2021/12/11 14:14:44;;;;;;;88.40;23.43;;;;;;;;;;5025596;28;20436;-94
2021/12/11 14:17:17;;;;;;;81.87;22.80;;;;;;;;;;5031965;28;20451;-96
2021/12/11 14:22:23;;;;;;;89.87;24.30;;;;;;;;;;5138125;22;20489;-96
2021/12/11 14:25:36;;;;;;;92.00;27.57;;;;;;;;;;5058657;28;20436;-96
2021/12/11 14:28:06;;;;;;;90.37;28.20;;;;;;;;;;5046372;28;20455;-96
2021/12/11 14:30:48;;;;;;;99.13;31.50;;;;;;;;;;5050507;28;20458;-96
2021/12/11 14:33:16;;;;;;;100.30;35.50;;;;;;;;;;5049375;28;20451;-96
2021/12/11 14:35:43;;;;;;;103.20;36.00;;;;;;;;;;5041921;28;20447;-96
2021/12/11 14:38:12;;;;;;;118.20;45.63;;;;;;;;;;5041657;28;20454;-96
2021/12/11 14:40:40;;;;;;;128.13;50.13;;;;;;;;;;5041082;28;20455;-96
2021/12/11 14:43:10;;;;;;;122.57;46.87;;;;;;;;;;5041395;28;20469;-95
2021/12/11 14:45:38;;;;;;;116.67;44.30;;;;;;;;;;5042533;28;20450;-96
2021/12/11 14:48:30;;;;;;;121.97;46.80;;;;;;;;;;5045115;28;20424;-96
2021/12/11 14:50:58;;;;;;;127.07;46.17;;;;;;;;;;5055697;28;20519;-96
2021/12/11 14:53:26;;;;;;;121.57;45.10;;;;;;;;;;5046273;28;20444;-96
2021/12/11 14:55:55;;;;;;;116.60;41.73;;;;;;;;;;5457539;22;20474;-96
2021/12/11 15:03:51;;;;;;;115.93;40.90;;;;;;;;;;5215637;22;20480;-96
2021/12/11 15:06:51;;;;;;;116.77;42.77;;;;;;;;;;5008759;28;20439;-96
2021/12/11 15:09:19;;;;;;;125.07;46.40;;;;;;;;;;5011227;28;20560;-96
2021/12/11 15:17:05;;;;;;;124.63;47.57;;;;;;;;;;5067200;28;20511;-96
2021/12/11 15:19:31;;;;;;;132.27;51.60;;;;;;;;;;5063081;28;20449;-94
2021/12/11 15:21:58;;;;;;;123.70;45.57;;;;;;;;;;5063162;28;20476;-96
2021/12/11 15:24:25;;;;;;;113.87;42.57;;;;;;;;;;5073830;28;20499;-96
2021/12/11 15:26:52;;;;;;;123.00;48.67;;;;;;;;;;5069231;28;20454;-96
2021/12/11 15:29:20;;;;;;;131.93;53.23;;;;;;;;;;5059779;28;20478;-93
2021/12/11 15:31:55;;;;;;;120.63;45.87;;;;;;;;;;5059060;28;20438;-96
2021/12/11 15:34:23;;;;;;;117.17;42.27;;;;;;;;;;5058544;28;20529;-96
2021/12/11 15:36:50;;;;;;;115.83;41.93;;;;;;;;;;5059726;28;20533;-96
2021/12/11 15:39:19;;;;;;;109.27;39.17;;;;;;;;;;5062705;28;20441;-96
2021/12/11 15:41:46;;;;;;;114.90;39.93;;;;;;;;;;5060340;28;20530;-96
2021/12/11 15:44:13;;;;;;;106.47;37.10;;;;;;;;;;5058487;28;20937;-96
2021/12/11 15:46:40;;;;;;;103.00;37.17;;;;;;;;;;5055096;28;20462;-96
2021/12/11 15:51:48;;;;;;;108.43;38.20;;;;;;;;;;5059693;28;20549;-96
2021/12/11 15:54:15;;;;;;;113.90;38.20;;;;;;;;;;5059025;28;20458;-96
2021/12/11 15:56:43;;;;;;;106.37;36.63;;;;;;;;;;5056704;28;20445;-95
2021/12/11 15:59:10;;;;;;;106.20;38.30;;;;;;;;;;5052112;28;21007;-96
2021/12/11 16:01:39;;;;;;;108.17;37.90;;;;;;;;;;5057345;28;20449;-95
2021/12/11 16:04:09;;;;;;;111.87;38.30;;;;;;;;;;5059070;28;20453;-96
2021/12/11 16:06:38;;;;;;;108.97;38.83;;;;;;;;;;5057533;28;20439;-96
2021/12/11 16:09:10;;;;;;;113.37;40.67;;;;;;;;;;5056611;28;20477;-96